createdAt,value
2023-05-06T00:01:22.221Z,95730.41
2023-05-06T00:03:49.360Z,95724.41
2023-05-06T00:06:16.792Z,95723.34
2023-05-06T00:08:43.755Z,95724.44
2023-05-06T00:11:10.652Z,95727.44
2023-05-06T00:13:38.438Z,95718.41
2023-05-06T00:16:05.910Z,95714.34
2023-05-06T00:18:33.201Z,95719.53
2023-05-06T00:21:01.045Z,95716.25
2023-05-06T00:23:28.165Z,95722.25
2023-05-06T00:25:55.254Z,95717.06
2023-05-06T00:28:22.274Z,95713.25
2023-05-06T00:30:49.236Z,95706.72
2023-05-06T00:33:16.123Z,95705.91
2023-05-06T00:35:43.094Z,95694.19
2023-05-06T00:38:12.170Z,95699.31
2023-05-06T00:40:39.379Z,95705.81
2023-05-06T00:43:06.375Z,95706.94
2023-05-06T00:45:33.377Z,95700.91
2023-05-06T00:48:00.401Z,95698.16
2023-05-06T00:50:28.730Z,95712.28
2023-05-06T00:52:57.159Z,95703.84
2023-05-06T00:55:24.705Z,95708.13
2023-05-06T00:57:52.679Z,95709.75
2023-05-06T01:00:19.850Z,95711.38
2023-05-06T01:02:48.245Z,95708.91
2023-05-06T01:05:18.749Z,95709.47
2023-05-06T01:08:03.854Z,95710.03
2023-05-06T01:11:06.684Z,95702.94
2023-05-06T01:13:39.697Z,95706.78
2023-05-06T01:16:07.689Z,95715.25
2023-05-06T01:18:35.041Z,95709.78
2023-05-06T01:21:02.206Z,95706.78
2023-05-06T01:23:29.173Z,95708.91
2023-05-06T01:25:56.426Z,95717.03
2023-05-06T01:28:23.245Z,95714.78
2023-05-06T01:30:53.704Z,95716.34
2023-05-06T01:33:51.584Z,95705.44
2023-05-06T01:36:46.807Z,95711.41
2023-05-06T01:39:25.896Z,95719.59
2023-05-06T01:41:54.324Z,95710.66
2023-05-06T01:44:22.195Z,95721.28
2023-05-06T01:46:49.926Z,95708.28
2023-05-06T01:49:17.192Z,95716.22
2023-05-06T01:51:51.147Z,95708.91
2023-05-06T01:54:18.273Z,95711.66
2023-05-06T01:56:45.218Z,95709.00
2023-05-06T01:59:12.104Z,95708.41
2023-05-06T02:01:39.039Z,95715.53
2023-05-06T02:04:05.954Z,95714.72
2023-05-06T02:06:32.870Z,95713.88
2023-05-06T02:08:59.761Z,95715.53
2023-05-06T02:11:26.560Z,95718.28
2023-05-06T02:13:53.498Z,95720.19
2023-05-06T02:16:22.048Z,95726.16
2023-05-06T02:18:49.042Z,95726.47
2023-05-06T02:21:16.124Z,95733.28
2023-05-06T02:23:43.071Z,95753.66
2023-05-06T02:26:10.928Z,95766.69
2023-05-06T02:28:37.819Z,95769.94
2023-05-06T02:31:04.738Z,95746.78
2023-05-06T02:33:31.661Z,95728.22
2023-05-06T02:35:58.514Z,95730.63
2023-05-06T02:38:26.185Z,95733.34
2023-05-06T02:40:52.987Z,95720.50
2023-05-06T02:43:19.867Z,95723.16
2023-05-06T02:45:46.719Z,95720.69
2023-05-06T02:48:13.724Z,95713.66
2023-05-06T02:50:41.333Z,95714.78
2023-05-06T02:53:09.529Z,95704.97
2023-05-06T02:55:36.555Z,95713.13
2023-05-06T02:58:03.381Z,95703.91
2023-05-06T03:00:30.258Z,95709.34
2023-05-06T03:02:57.235Z,95705.00
2023-05-06T03:05:24.394Z,95701.78
2023-05-06T03:07:51.362Z,95701.53
2023-05-06T03:10:18.260Z,95702.38
2023-05-06T03:12:45.266Z,95700.47
2023-05-06T03:15:12.241Z,95708.63
2023-05-06T03:17:39.769Z,95705.94
2023-05-06T03:20:08.846Z,95706.22
2023-05-06T03:22:35.958Z,95709.75
2023-05-06T03:25:02.869Z,95700.22
2023-05-06T03:27:30.135Z,95689.31
2023-05-06T03:29:56.919Z,95686.00
2023-05-06T03:32:23.764Z,95691.91
2023-05-06T03:34:51.316Z,95702.19
2023-05-06T03:37:18.887Z,95702.72
2023-05-06T03:39:45.746Z,95696.19
2023-05-06T03:42:12.584Z,95696.16
2023-05-06T03:44:39.429Z,95703.44
2023-05-06T03:47:06.270Z,95700.97
2023-05-06T03:49:33.128Z,95701.00
2023-05-06T03:51:59.962Z,95707.63
2023-05-06T03:54:26.899Z,95707.13
2023-05-06T03:56:53.756Z,95722.41
2023-05-06T03:59:20.585Z,95727.31
2023-05-06T04:01:47.549Z,95733.38
2023-05-06T04:04:14.493Z,95725.81
2023-05-06T04:06:41.445Z,95696.69
2023-05-06T04:09:08.349Z,95682.53
2023-05-06T04:11:36.040Z,95702.31
2023-05-06T04:14:02.979Z,95702.06
2023-05-06T04:16:30.033Z,95692.16
2023-05-06T04:18:57.703Z,95683.75
2023-05-06T04:21:24.592Z,95701.41
2023-05-06T04:23:51.711Z,95696.00
2023-05-06T04:26:18.632Z,95700.59
2023-05-06T04:28:46.113Z,95696.38
2023-05-06T04:31:14.951Z,95702.84
2023-05-06T04:33:42.303Z,95702.84
2023-05-06T04:36:09.212Z,95697.19
2023-05-06T04:38:37.730Z,95706.72
2023-05-06T04:41:05.532Z,95696.38
2023-05-06T04:43:32.949Z,95694.75
2023-05-06T04:46:00.092Z,95701.28
2023-05-06T04:48:27.194Z,95699.97
2023-05-06T04:50:54.188Z,95695.19
2023-05-06T04:53:21.161Z,95700.16
2023-05-06T04:55:48.045Z,95710.88
2023-05-06T04:58:15.023Z,95710.19
2023-05-06T05:00:41.991Z,95710.81
2023-05-06T05:03:08.912Z,95712.16
2023-05-06T05:05:35.908Z,95712.41
2023-05-06T05:08:02.722Z,95712.41
2023-05-06T05:10:29.675Z,95717.28
2023-05-06T05:12:56.699Z,95710.19
2023-05-06T05:15:23.746Z,95709.03
2023-05-06T05:17:51.142Z,95707.94
2023-05-06T05:20:18.217Z,95713.34
2023-05-06T05:22:45.003Z,95716.78
2023-05-06T05:25:12.344Z,95719.03
2023-05-06T05:27:39.762Z,95717.03
2023-05-06T05:30:08.112Z,95718.50
2023-05-06T05:32:35.085Z,95715.91
2023-05-06T05:35:02.164Z,95718.31
2023-05-06T05:37:29.165Z,95721.00
2023-05-06T05:39:56.101Z,95717.09
2023-05-06T05:42:22.967Z,95725.75
2023-05-06T05:44:49.877Z,95723.91
2023-05-06T05:47:16.750Z,95724.13
2023-05-06T05:49:43.600Z,95728.81
2023-05-06T05:52:10.422Z,95734.72
2023-05-06T05:54:37.390Z,95736.47
2023-05-06T05:57:04.586Z,95730.34
2023-05-06T05:59:32.966Z,95732.34
2023-05-06T06:01:59.882Z,95733.31
2023-05-06T06:04:27.208Z,95743.06
2023-05-06T06:06:54.179Z,95733.69
2023-05-06T06:09:21.212Z,95734.72
2023-05-06T06:11:48.172Z,95732.16
2023-05-06T06:14:15.043Z,95728.56
2023-05-06T06:16:42.178Z,95729.81
2023-05-06T06:19:09.164Z,95722.78
2023-05-06T06:21:36.169Z,95732.56
2023-05-06T06:24:03.207Z,95734.75
2023-05-06T06:26:30.023Z,95739.28
2023-05-06T06:28:56.810Z,95733.41
2023-05-06T06:31:24.031Z,95726.59
2023-05-06T06:33:50.875Z,95734.97
2023-05-06T06:36:17.666Z,95743.19
2023-05-06T06:38:44.653Z,95730.03
2023-05-06T06:41:11.550Z,95732.38
2023-05-06T06:43:38.359Z,95739.28
2023-05-06T06:46:05.328Z,95736.75
2023-05-06T06:48:32.199Z,95739.44
2023-05-06T06:50:59.240Z,95736.97
2023-05-06T06:53:26.087Z,95734.66
2023-05-06T06:55:52.977Z,95734.97
2023-05-06T06:58:19.933Z,95735.00
2023-05-06T07:00:46.847Z,95743.66
2023-05-06T07:03:15.981Z,95729.84
2023-05-06T07:05:42.936Z,95726.13
2023-05-06T07:08:09.737Z,95743.31
2023-05-06T07:10:36.849Z,95740.16
2023-05-06T07:13:03.785Z,95740.41
2023-05-06T07:15:30.739Z,95722.78
2023-05-06T07:17:57.617Z,95728.63
2023-05-06T07:20:24.526Z,95728.78
2023-05-06T07:22:51.270Z,95732.47
2023-05-06T07:25:18.212Z,95730.41
2023-05-06T07:27:44.944Z,95731.81
2023-05-06T07:30:12.170Z,95730.81
2023-05-06T07:32:43.650Z,95740.31
2023-05-06T07:35:10.733Z,95742.44
2023-05-06T07:37:38.049Z,95736.41
2023-05-06T07:40:05.707Z,95739.44
2023-05-06T07:42:32.739Z,95734.53
2023-05-06T07:44:59.738Z,95732.88
2023-05-06T07:47:31.863Z,95725.53
2023-05-06T07:49:59.053Z,95730.94
2023-05-06T07:52:25.844Z,95739.94
2023-05-06T07:54:53.452Z,95730.41
2023-05-06T07:57:20.343Z,95732.13
2023-05-06T07:59:48.060Z,95734.69
2023-05-06T08:02:15.409Z,95727.88
2023-05-06T08:04:43.195Z,95729.59
2023-05-06T08:07:11.020Z,95735.09
2023-05-06T08:09:38.074Z,95737.44
2023-05-06T08:12:04.863Z,95736.94
2023-05-06T08:14:31.894Z,95738.81
2023-05-06T08:16:58.810Z,95733.19
2023-05-06T08:19:26.697Z,95732.78
2023-05-06T08:21:53.599Z,95727.63
2023-05-06T08:24:21.800Z,95732.06
2023-05-06T08:26:48.722Z,95727.91
2023-05-06T08:29:16.113Z,95721.47
2023-05-06T08:31:43.638Z,95715.59
2023-05-06T08:34:10.600Z,95720.03
2023-05-06T08:36:37.511Z,95710.44
2023-05-06T08:39:04.761Z,95710.59
2023-05-06T08:41:31.826Z,95703.28
2023-05-06T08:43:58.805Z,95702.22
2023-05-06T08:46:27.862Z,95708.56
2023-05-06T08:48:54.866Z,95697.34
2023-05-06T08:51:23.669Z,95692.28
2023-05-06T08:53:52.228Z,95687.97
2023-05-06T08:56:19.262Z,95682.59
2023-05-06T08:58:46.946Z,95685.00
2023-05-06T09:01:14.981Z,95684.63
2023-05-06T09:03:42.014Z,95685.16
2023-05-06T09:06:09.066Z,95680.72
2023-05-06T09:08:36.480Z,95678.66
2023-05-06T09:11:03.405Z,95673.91
2023-05-06T09:13:30.335Z,95671.22
2023-05-06T09:15:57.189Z,95672.63
2023-05-06T09:18:24.070Z,95664.69
2023-05-06T09:20:51.143Z,95655.53
2023-05-06T09:23:18.173Z,95650.88
2023-05-06T09:25:46.312Z,95652.69
2023-05-06T09:28:13.760Z,95653.78
2023-05-06T09:30:41.938Z,95644.09
2023-05-06T09:33:09.180Z,95641.44
2023-05-06T09:35:40.498Z,95641.03
2023-05-06T09:38:08.072Z,95632.25
2023-05-06T09:40:36.203Z,95636.84
2023-05-06T09:43:03.636Z,95623.88
2023-05-06T09:45:30.986Z,95630.94
2023-05-06T09:47:58.784Z,95618.19
2023-05-06T09:50:26.729Z,95619.03
2023-05-06T09:52:53.750Z,95623.88
2023-05-06T09:55:21.446Z,95614.53
2023-05-06T09:57:49.478Z,95615.41
2023-05-06T10:00:17.328Z,95617.63
2023-05-06T10:02:45.986Z,95609.56
2023-05-06T10:05:14.049Z,95602.19
2023-05-06T10:07:44.474Z,95607.50
2023-05-06T10:10:14.641Z,95611.59
2023-05-06T10:12:41.671Z,95588.38
2023-05-06T10:15:09.913Z,95590.78
2023-05-06T10:17:37.013Z,95600.78
2023-05-06T10:20:05.048Z,95588.69
2023-05-06T10:22:31.790Z,95586.16
2023-05-06T10:25:07.531Z,95589.41
2023-05-06T10:27:36.107Z,95581.50
2023-05-06T10:30:02.944Z,95585.44
2023-05-06T10:32:32.413Z,95579.81
2023-05-06T10:35:06.421Z,95578.91
2023-05-06T10:37:33.273Z,95571.88
2023-05-06T10:40:00.206Z,95571.97
2023-05-06T10:42:28.644Z,95574.00
2023-05-06T10:45:04.208Z,95561.97
2023-05-06T10:47:53.024Z,95562.63
2023-05-06T10:50:23.479Z,95565.13
2023-05-06T10:52:55.627Z,95559.09
2023-05-06T10:55:36.103Z,95559.41
2023-05-06T10:58:11.727Z,95549.22
2023-05-06T11:00:38.712Z,95558.00
2023-05-06T11:03:07.719Z,95558.38
2023-05-06T11:05:52.863Z,95555.88
2023-05-06T11:08:25.344Z,95549.41
2023-05-06T11:10:53.433Z,95550.22
2023-05-06T11:13:29.896Z,95549.06
2023-05-06T11:15:57.915Z,95546.06
2023-05-06T11:18:24.794Z,95540.22
2023-05-06T11:21:09.978Z,95543.81
2023-05-06T11:23:43.154Z,95544.16
2023-05-06T11:26:10.554Z,95534.06
2023-05-06T11:28:38.768Z,95527.94
2023-05-06T11:31:05.561Z,95527.13
2023-05-06T11:33:34.010Z,95534.94
2023-05-06T11:36:01.191Z,95533.84
2023-05-06T11:38:45.745Z,95532.88
2023-05-06T11:41:13.065Z,95533.75
2023-05-06T11:43:40.156Z,95525.97
2023-05-06T11:46:07.124Z,95524.91
2023-05-06T11:48:34.015Z,95522.00
2023-05-06T11:51:01.325Z,95522.16
2023-05-06T11:53:28.215Z,95524.31
2023-05-06T11:55:55.216Z,95521.25
2023-05-06T11:58:28.960Z,95525.84
2023-05-06T12:00:57.339Z,95525.09
2023-05-06T12:03:26.052Z,95520.19
2023-05-06T12:05:53.296Z,95525.69
2023-05-06T12:08:31.221Z,95511.84
2023-05-06T12:11:10.551Z,95516.47
2023-05-06T12:13:37.934Z,95510.78
2023-05-06T12:16:05.438Z,95504.81
2023-05-06T12:18:32.539Z,95508.53
2023-05-06T12:21:02.886Z,95502.63
2023-05-06T12:23:30.016Z,95504.75
2023-05-06T12:26:02.860Z,95506.06
2023-05-06T12:28:30.692Z,95510.38
2023-05-06T12:30:57.792Z,95512.56
2023-05-06T12:33:24.753Z,95504.53
2023-05-06T12:35:52.760Z,95499.41
2023-05-06T12:38:19.580Z,95498.50
2023-05-06T12:40:53.701Z,95496.66
2023-05-06T12:43:28.707Z,95495.25
2023-05-06T12:46:09.370Z,95487.97
2023-05-06T12:48:36.426Z,95489.34
2023-05-06T12:51:23.580Z,95492.59
2023-05-06T12:53:50.531Z,95490.78
2023-05-06T12:56:17.396Z,95494.72
2023-05-06T12:58:44.336Z,95483.53
2023-05-06T13:01:11.396Z,95484.91
2023-05-06T13:03:41.158Z,95481.50
2023-05-06T13:06:08.268Z,95483.13
2023-05-06T13:08:35.177Z,95474.88
2023-05-06T13:11:02.787Z,95484.09
2023-05-06T13:13:29.708Z,95483.25
2023-05-06T13:15:57.395Z,95474.13
2023-05-06T13:18:24.420Z,95467.00
2023-05-06T13:20:52.077Z,95460.16
2023-05-06T13:23:19.735Z,95456.88
2023-05-06T13:26:02.705Z,95459.84
2023-05-06T13:28:30.047Z,95455.53
2023-05-06T13:30:56.863Z,95448.31
2023-05-06T13:33:23.687Z,95442.34
2023-05-06T13:35:50.620Z,95442.53
2023-05-06T13:38:17.418Z,95431.31
2023-05-06T13:40:48.395Z,95437.44
2023-05-06T13:43:16.117Z,95430.19
2023-05-06T13:45:45.161Z,95439.44
2023-05-06T13:48:13.122Z,95435.84
2023-05-06T13:50:44.347Z,95434.34
2023-05-06T13:53:11.941Z,95432.84
2023-05-06T13:55:38.780Z,95434.91
2023-05-06T13:58:06.311Z,95423.47
2023-05-06T14:00:33.562Z,95432.44
2023-05-06T14:03:01.123Z,95430.16
2023-05-06T14:05:28.256Z,95428.53
2023-05-06T14:07:55.051Z,95427.56
2023-05-06T14:10:22.074Z,95430.66
2023-05-06T14:12:49.134Z,95420.03
2023-05-06T14:15:16.022Z,95427.09
2023-05-06T14:17:43.184Z,95414.09
2023-05-06T14:20:10.795Z,95412.66
2023-05-06T14:22:40.275Z,95415.53
2023-05-06T14:25:08.230Z,95408.53
2023-05-06T14:27:35.438Z,95404.19
2023-05-06T14:30:08.607Z,95402.59
2023-05-06T14:32:36.578Z,95405.59
2023-05-06T14:35:04.264Z,95404.44
2023-05-06T14:37:31.067Z,95393.31
2023-05-06T14:39:58.039Z,95400.22
2023-05-06T14:42:24.915Z,95395.22
2023-05-06T14:44:51.695Z,95397.19
2023-05-06T14:47:19.202Z,95393.25
2023-05-06T14:49:46.128Z,95387.44
2023-05-06T14:52:12.963Z,95384.94
2023-05-06T14:54:42.773Z,95385.91
2023-05-06T14:57:10.197Z,95381.25
2023-05-06T14:59:37.403Z,95382.59
2023-05-06T15:02:07.672Z,95373.75
2023-05-06T15:04:34.947Z,95373.22
2023-05-06T15:07:01.903Z,95372.06
2023-05-06T15:09:28.799Z,95381.44
2023-05-06T15:11:55.630Z,95382.53
2023-05-06T15:14:22.459Z,95374.59
2023-05-06T15:16:49.506Z,95387.38
2023-05-06T15:19:16.716Z,95380.94
2023-05-06T15:21:44.352Z,95390.59
2023-05-06T15:24:11.317Z,95385.34
2023-05-06T15:26:38.109Z,95389.72
2023-05-06T15:29:06.822Z,95382.91
2023-05-06T15:31:39.498Z,95388.09
2023-05-06T15:34:07.724Z,95391.69
2023-05-06T15:36:34.596Z,95389.41
2023-05-06T15:39:01.756Z,95395.88
2023-05-06T15:41:31.437Z,95398.19
2023-05-06T15:43:58.661Z,95393.34
2023-05-06T15:46:26.959Z,95395.78
2023-05-06T15:49:09.016Z,95396.44
2023-05-06T15:51:40.581Z,95393.28
2023-05-06T15:54:07.443Z,95391.47
2023-05-06T15:56:40.596Z,95393.38
2023-05-06T15:59:08.502Z,95397.19
2023-05-06T16:01:54.107Z,95398.97
2023-05-06T16:04:23.200Z,95393.00
2023-05-06T16:06:50.262Z,95397.19
2023-05-06T16:09:17.146Z,95384.19
2023-05-06T16:11:43.913Z,95393.22
2023-05-06T16:14:10.794Z,95392.03
2023-05-06T16:16:38.103Z,95392.09
2023-05-06T16:19:05.141Z,95390.69
2023-05-06T16:21:32.100Z,95389.34
2023-05-06T16:23:59.057Z,95383.47
2023-05-06T16:26:26.073Z,95387.03
2023-05-06T16:28:53.937Z,95388.81
2023-05-06T16:31:20.920Z,95386.03
2023-05-06T16:33:48.075Z,95386.03
2023-05-06T16:36:15.240Z,95390.34
2023-05-06T16:38:42.542Z,95388.06
2023-05-06T16:41:09.345Z,95392.34
2023-05-06T16:43:36.399Z,95399.09
2023-05-06T16:46:03.268Z,95400.28
2023-05-06T16:48:30.338Z,95413.88
2023-05-06T16:50:58.327Z,95405.78
2023-05-06T16:53:28.179Z,95414.22
2023-05-06T16:55:55.614Z,95412.13
2023-05-06T16:58:22.614Z,95409.81
2023-05-06T17:00:52.850Z,95411.25
2023-05-06T17:03:20.068Z,95404.78
2023-05-06T17:05:47.168Z,95394.88
2023-05-06T17:08:16.226Z,95390.69
2023-05-06T17:10:43.876Z,95394.84
2023-05-06T17:13:11.011Z,95390.22
2023-05-06T17:15:37.880Z,95395.25
2023-05-06T17:18:05.179Z,95396.78
2023-05-06T17:20:33.635Z,95407.44
2023-05-06T17:23:05.044Z,95411.97
2023-05-06T17:25:31.903Z,95413.81
2023-05-06T17:27:58.882Z,95423.44
2023-05-06T17:30:25.661Z,95420.03
2023-05-06T17:32:52.532Z,95420.81
2023-05-06T17:35:20.388Z,95423.03
2023-05-06T17:37:47.206Z,95423.31
2023-05-06T17:40:15.469Z,95433.81
2023-05-06T17:42:42.432Z,95428.56
2023-05-06T17:45:09.730Z,95435.16
2023-05-06T17:47:37.344Z,95440.63
2023-05-06T17:50:04.761Z,95444.91
2023-05-06T17:52:31.707Z,95438.53
2023-05-06T17:55:23.432Z,95439.53
2023-05-06T17:57:46.110Z,95437.25
2023-05-06T18:00:14.243Z,95439.31
2023-05-06T18:02:41.734Z,95445.38
2023-05-06T18:05:09.208Z,95446.72
2023-05-06T18:07:36.516Z,95450.50
2023-05-06T18:10:03.452Z,95449.78
2023-05-06T18:12:31.215Z,95447.13
2023-05-06T18:14:58.250Z,95449.38
2023-05-06T18:17:26.070Z,95448.78
2023-05-06T18:19:53.044Z,95467.38
2023-05-06T18:22:19.877Z,95465.94
2023-05-06T18:24:46.701Z,95468.53
2023-05-06T18:27:13.694Z,95469.50
2023-05-06T18:29:41.714Z,95470.47
2023-05-06T18:32:08.834Z,95470.84
2023-05-06T18:34:36.088Z,95472.03
2023-05-06T18:37:03.823Z,95476.00
2023-05-06T18:39:30.596Z,95476.97
2023-05-06T18:41:57.552Z,95472.44
2023-05-06T18:44:24.418Z,95480.41
2023-05-06T18:46:51.411Z,95483.78
2023-05-06T18:49:18.412Z,95482.00
2023-05-06T18:51:45.447Z,95473.91
2023-05-06T18:54:14.258Z,95474.56
2023-05-06T18:56:43.831Z,95470.84
2023-05-06T18:59:11.455Z,95473.16
2023-05-06T19:01:38.327Z,95487.75
2023-05-06T19:04:06.683Z,95479.34
2023-05-06T19:06:33.727Z,95485.63
2023-05-06T19:09:01.581Z,95491.34
2023-05-06T19:11:28.635Z,95484.34
2023-05-06T19:13:55.595Z,95487.91
2023-05-06T19:16:22.663Z,95494.72
2023-05-06T19:18:49.646Z,95498.00
2023-05-06T19:21:18.861Z,95493.63
2023-05-06T19:23:45.738Z,95502.34
2023-05-06T19:26:13.853Z,95499.06
2023-05-06T19:28:40.846Z,95510.88
2023-05-06T19:31:09.579Z,95494.84
2023-05-06T19:33:38.076Z,95493.28
2023-05-06T19:36:05.390Z,95497.75
2023-05-06T19:38:32.268Z,95495.91
2023-05-06T19:40:59.205Z,95505.72
2023-05-06T19:43:26.120Z,95500.03
2023-05-06T19:45:52.877Z,95497.59
2023-05-06T19:48:19.920Z,95491.34
2023-05-06T19:50:46.718Z,95496.25
2023-05-06T19:53:13.627Z,95498.19
2023-05-06T19:55:40.576Z,95504.78
2023-05-06T19:58:07.491Z,95500.75
2023-05-06T20:00:34.488Z,95493.94
2023-05-06T20:03:01.409Z,95494.78
2023-05-06T20:05:32.177Z,95489.59
2023-05-06T20:08:02.633Z,95491.75
2023-05-06T20:10:29.698Z,95494.25
2023-05-06T20:12:57.894Z,95495.28
2023-05-06T20:15:26.749Z,95491.19
2023-05-06T20:17:53.974Z,95496.59
2023-05-06T20:20:21.061Z,95499.88
2023-05-06T20:22:48.136Z,95484.88
2023-05-06T20:25:18.961Z,95489.53
2023-05-06T20:27:46.579Z,95488.16
2023-05-06T20:30:13.598Z,95489.03
2023-05-06T20:32:40.913Z,95487.41
2023-05-06T20:35:08.834Z,95490.41
2023-05-06T20:37:36.394Z,95485.25
2023-05-06T20:40:05.193Z,95486.91
2023-05-06T20:42:32.108Z,95485.56
2023-05-06T20:44:59.422Z,95473.59
2023-05-06T20:47:27.064Z,95487.50
2023-05-06T20:49:54.696Z,95485.63
2023-05-06T20:52:22.161Z,95493.84
2023-05-06T20:54:49.321Z,95483.22
2023-05-06T20:57:16.611Z,95481.09
2023-05-06T20:59:43.629Z,95483.53
2023-05-06T21:02:10.716Z,95490.13
2023-05-06T21:04:37.944Z,95489.84
2023-05-06T21:07:04.924Z,95492.84
2023-05-06T21:09:31.931Z,95493.97
2023-05-06T21:11:59.159Z,95493.16
2023-05-06T21:14:26.957Z,95491.84
2023-05-06T21:16:53.927Z,95493.50
2023-05-06T21:19:21.115Z,95500.06
2023-05-06T21:21:48.429Z,95498.44
2023-05-06T21:24:15.595Z,95497.06
2023-05-06T21:26:42.418Z,95504.72
2023-05-06T21:29:09.363Z,95510.44
2023-05-06T21:31:36.658Z,95502.00
2023-05-06T21:34:04.373Z,95501.44
2023-05-06T21:36:31.434Z,95506.09
2023-05-06T21:39:12.252Z,95509.63
2023-05-06T21:41:39.480Z,95516.16
2023-05-06T21:44:08.446Z,95507.72
2023-05-06T21:46:36.947Z,95503.66
2023-05-06T21:49:04.054Z,95497.91
2023-05-06T21:51:33.263Z,95506.38
2023-05-06T21:53:59.993Z,95505.53
2023-05-06T21:56:26.921Z,95505.56
2023-05-06T21:58:56.513Z,95503.94
2023-05-06T22:01:26.539Z,95507.75
2023-05-06T22:03:54.116Z,95506.41
2023-05-06T22:06:22.047Z,95519.19
2023-05-06T22:08:49.760Z,95508.31
2023-05-06T22:11:16.987Z,95517.03
2023-05-06T22:13:43.952Z,95522.72
2023-05-06T22:16:10.969Z,95522.44
2023-05-06T22:18:41.645Z,95527.06
2023-05-06T22:21:09.960Z,95517.59
2023-05-06T22:23:37.072Z,95520.28
2023-05-06T22:26:04.528Z,95515.38
2023-05-06T22:28:31.436Z,95520.56
2023-05-06T22:30:58.387Z,95521.38
2023-05-06T22:33:26.619Z,95522.19
2023-05-06T22:35:53.893Z,95522.44
2023-05-06T22:38:20.774Z,95513.47
2023-05-06T22:40:47.876Z,95519.44
2023-05-06T22:43:14.925Z,95511.03
2023-05-06T22:45:41.806Z,95519.44
2023-05-06T22:48:08.707Z,95515.38
2023-05-06T22:50:36.734Z,95517.28
2023-05-06T22:53:13.551Z,95519.16
2023-05-06T22:55:41.897Z,95521.06
2023-05-06T22:58:08.725Z,95519.16
2023-05-06T23:00:35.676Z,95512.03
2023-05-06T23:03:03.171Z,95513.94
2023-05-06T23:05:30.253Z,95501.19
2023-05-06T23:07:57.208Z,95506.63
2023-05-06T23:10:23.975Z,95506.91
2023-05-06T23:12:50.944Z,95505.81
2023-05-06T23:15:17.833Z,95508.00
2023-05-06T23:17:45.051Z,95509.88
2023-05-06T23:20:13.027Z,95505.81
2023-05-06T23:22:39.914Z,95503.38
2023-05-06T23:25:09.339Z,95501.72
2023-05-06T23:27:41.461Z,95507.41
2023-05-06T23:30:08.970Z,95502.53
2023-05-06T23:32:36.071Z,95501.19
2023-05-06T23:35:03.140Z,95504.72
2023-05-06T23:37:29.944Z,95505.81
2023-05-06T23:39:58.733Z,95508.75
2023-05-06T23:42:26.289Z,95506.00
2023-05-06T23:44:53.705Z,95513.84
2023-05-06T23:47:20.555Z,95500.50
2023-05-06T23:49:47.408Z,95509.78
2023-05-06T23:52:14.303Z,95499.72
2023-05-06T23:54:41.117Z,95497.56
2023-05-06T23:57:08.098Z,95500.81
2023-05-06T23:59:35.162Z,95498.34
